RJAA/NRT METAR and TAF weather

Enter ICAO airport designator
Station Type Date Time Source
RJAA METAR 2020/09/27 03:00 UTC NOAA

RJAA 270300Z 02006KT 330V050 9999 FEW006 BKN010 BKN070 21/18 Q1009 NOSIG


Station Type Date Time Source
RJAA Decoded METAR 2020/09/27 03:00 UTC NOAA

New Tokyo Inter-National Airport, Japan (RJAA) 35-46N 140-23E 44M
Sep 26, 2020 - 11:00 PM EDT / 2020.09.27 0300 UTC
Wind: from the NNE (020 degrees) at 7 MPH (6 KT) (direction variable):0
Visibility: greater than 7 mile(s):0
Sky conditions: mostly cloudy
Temperature: 69 F (21 C)
Dew Point: 64 F (18 C)
Relative Humidity: 82%
Pressure (altimeter): 29.80 in. Hg (1009 hPa)
ob: RJAA 270300Z 02006KT 330V050 9999 FEW006 BKN010 BKN070 21/18 Q1009 NOSIG
cycle: 3

Station Type Date Time Source
RJAA TAF 2020/09/26 18:08 UTC NOAA

TAF RJAA 261705Z 2618/2800 36008KT 9999 FEW005 BKN012
TEMPO 2618/2623 4000 -RA BR FEW003 BKN005
TEMPO 2623/2702 FEW005 BKN008
BECMG 2706/2709 10006KT
BECMG 2712/2715 34004KT

Example: see airport list